createdAt,value
2017-09-22T00:00:29.592Z,0
2017-09-22T00:01:29.920Z,0
2017-09-22T00:02:29.628Z,0
2017-09-22T00:03:29.647Z,0
2017-09-22T00:04:29.690Z,0
2017-09-22T00:05:29.691Z,0
2017-09-22T00:06:29.708Z,0
2017-09-22T00:07:29.740Z,0
2017-09-22T00:08:29.746Z,0
2017-09-22T00:09:30.085Z,0
2017-09-22T00:10:29.803Z,0
2017-09-22T00:11:29.812Z,0
2017-09-22T00:12:29.838Z,0
2017-09-22T00:13:29.903Z,0
2017-09-22T00:14:30.383Z,0
2017-09-22T00:15:29.899Z,0
2017-09-22T00:16:29.912Z,0
2017-09-22T00:17:30.244Z,0
2017-09-22T00:18:30.263Z,0
2017-09-22T00:19:30.288Z,0
2017-09-22T00:20:29.986Z,0
2017-09-22T00:21:30.015Z,0
2017-09-22T00:22:30.032Z,0
2017-09-22T00:23:30.061Z,0
2017-09-22T00:24:30.076Z,0
2017-09-22T00:25:30.098Z,0
2017-09-22T00:26:30.121Z,0
2017-09-22T00:27:30.447Z,0
2017-09-22T00:28:30.464Z,0
2017-09-22T00:29:30.229Z,0
2017-09-22T00:30:30.193Z,0
2017-09-22T00:31:30.216Z,0
2017-09-22T00:32:30.555Z,0
2017-09-22T00:33:30.254Z,0
2017-09-22T00:34:30.281Z,0
2017-09-22T00:35:30.302Z,0
2017-09-22T00:36:30.315Z,0
2017-09-22T00:37:30.337Z,0
2017-09-22T00:38:30.352Z,0
2017-09-22T00:39:30.690Z,0
2017-09-22T00:40:30.707Z,0
2017-09-22T00:41:30.417Z,0
2017-09-22T00:42:30.461Z,0
2017-09-22T00:43:30.771Z,0
2017-09-22T00:44:30.482Z,0
2017-09-22T00:45:30.498Z,0
2017-09-22T00:46:30.831Z,0
2017-09-22T00:47:30.857Z,0
2017-09-22T00:48:30.611Z,0
2017-09-22T00:49:30.580Z,0
2017-09-22T00:50:30.594Z,0
2017-09-22T00:51:30.922Z,0
2017-09-22T00:52:30.635Z,0
2017-09-22T00:53:30.660Z,0
2017-09-22T00:54:30.983Z,0
2017-09-22T00:55:30.696Z,0
2017-09-22T00:56:30.715Z,0
2017-09-22T00:57:30.742Z,0
2017-09-22T00:58:30.768Z,0
2017-09-22T00:59:30.775Z,0
2017-09-22T01:00:30.798Z,0
2017-09-22T01:01:30.813Z,0
2017-09-22T01:02:30.842Z,0
2017-09-22T01:03:30.872Z,0
2017-09-22T01:04:31.023Z,0
2017-09-22T01:05:30.894Z,0
2017-09-22T01:06:30.915Z,0
2017-09-22T01:07:31.268Z,0
2017-09-22T01:08:30.954Z,0
2017-09-22T01:09:30.978Z,0
2017-09-22T01:10:30.991Z,0
2017-09-22T01:11:31.011Z,0
2017-09-22T01:12:31.031Z,0
2017-09-22T01:13:31.051Z,0
2017-09-22T01:14:31.383Z,0
2017-09-22T01:15:31.089Z,0
2017-09-22T01:16:31.419Z,0
2017-09-22T01:17:31.448Z,0
2017-09-22T01:18:31.157Z,0
2017-09-22T01:19:31.194Z,0
2017-09-22T01:20:31.510Z,0
2017-09-22T01:21:31.211Z,0
2017-09-22T01:22:31.236Z,0
2017-09-22T01:23:31.254Z,0
2017-09-22T01:24:31.280Z,0
2017-09-22T01:25:31.285Z,0
2017-09-22T01:26:31.306Z,0
2017-09-22T01:27:31.331Z,0
2017-09-22T01:28:31.356Z,0
2017-09-22T01:29:31.371Z,0
2017-09-22T01:30:32.021Z,0
2017-09-22T01:31:31.407Z,0
2017-09-22T01:32:31.437Z,0
2017-09-22T01:33:31.454Z,0
2017-09-22T01:34:31.481Z,0
2017-09-22T01:35:31.494Z,0
2017-09-22T01:36:31.517Z,0
2017-09-22T01:37:31.547Z,0
2017-09-22T01:38:31.865Z,0
2017-09-22T01:39:31.619Z,0
2017-09-22T01:40:31.605Z,0
2017-09-22T01:41:31.919Z,0
2017-09-22T01:42:31.937Z,0
2017-09-22T01:43:31.683Z,0
2017-09-22T01:44:31.668Z,0
2017-09-22T01:45:31.689Z,0
2017-09-22T01:46:31.770Z,0
2017-09-22T01:47:31.722Z,0
2017-09-22T01:48:31.747Z,0
2017-09-22T01:49:31.769Z,0
2017-09-22T01:50:31.783Z,0
2017-09-22T01:51:31.809Z,0
2017-09-22T01:52:31.822Z,0
2017-09-22T01:53:31.842Z,0
2017-09-22T01:54:32.174Z,0
2017-09-22T01:55:31.905Z,0
2017-09-22T01:56:31.908Z,0
2017-09-22T01:57:31.928Z,0
2017-09-22T01:58:32.252Z,0
2017-09-22T01:59:31.968Z,0
2017-09-22T02:00:31.980Z,0
2017-09-22T02:01:32.000Z,0
2017-09-22T02:02:32.024Z,0
2017-09-22T02:03:32.042Z,0
2017-09-22T02:04:32.072Z,0
2017-09-22T02:05:32.099Z,0
2017-09-22T02:06:32.104Z,0
2017-09-22T02:07:32.113Z,0
2017-09-22T02:08:32.140Z,0
2017-09-22T02:09:32.163Z,0
2017-09-22T02:10:32.184Z,0
2017-09-22T02:11:32.201Z,0
2017-09-22T02:12:32.217Z,0
2017-09-22T02:13:32.241Z,0
2017-09-22T02:14:32.257Z,0
2017-09-22T02:15:32.275Z,0
2017-09-22T02:16:32.356Z,0
2017-09-22T02:17:32.945Z,0
2017-09-22T02:18:32.337Z,0
2017-09-22T02:19:32.674Z,0
2017-09-22T02:20:32.384Z,0
2017-09-22T02:21:32.396Z,0
2017-09-22T02:22:32.731Z,0
2017-09-22T02:23:32.436Z,0
2017-09-22T02:24:32.457Z,0
2017-09-22T02:25:32.471Z,0
2017-09-22T02:26:32.510Z,0
2017-09-22T02:27:32.824Z,0
2017-09-22T02:28:32.530Z,0
2017-09-22T02:29:32.560Z,0
2017-09-22T02:30:32.576Z,0
2017-09-22T02:31:32.645Z,0
2017-09-22T02:32:32.616Z,0
2017-09-22T02:33:32.632Z,0
2017-09-22T02:34:32.658Z,0
2017-09-22T02:35:32.671Z,0
2017-09-22T02:36:32.688Z,0
2017-09-22T02:37:33.022Z,0
2017-09-22T02:38:32.728Z,0
2017-09-22T02:39:32.747Z,0
2017-09-22T02:40:32.773Z,0
2017-09-22T02:41:32.795Z,0
2017-09-22T02:42:32.831Z,0
2017-09-22T02:43:32.826Z,0
2017-09-22T02:44:32.849Z,0
2017-09-22T02:45:32.858Z,0
2017-09-22T02:46:32.937Z,0
2017-09-22T02:47:33.210Z,0
2017-09-22T02:48:32.923Z,0
2017-09-22T02:49:33.247Z,0
2017-09-22T02:50:32.973Z,0
2017-09-22T02:51:33.293Z,0
2017-09-22T02:52:33.001Z,0
2017-09-22T02:53:33.020Z,0
2017-09-22T02:54:33.032Z,0
2017-09-22T02:55:33.060Z,0
2017-09-22T02:56:33.079Z,0
2017-09-22T02:57:33.099Z,0
2017-09-22T02:58:33.118Z,0
2017-09-22T02:59:33.149Z,0
2017-09-22T03:00:33.155Z,0
2017-09-22T03:01:33.222Z,0
2017-09-22T03:02:33.185Z,0
2017-09-22T03:03:33.213Z,0
2017-09-22T03:04:33.230Z,0
2017-09-22T03:05:33.251Z,0
2017-09-22T03:06:33.579Z,0
2017-09-22T03:07:33.291Z,0
2017-09-22T03:08:33.301Z,0
2017-09-22T03:09:33.330Z,0
2017-09-22T03:10:33.338Z,0
2017-09-22T03:11:33.387Z,0
2017-09-22T03:12:33.382Z,0
2017-09-22T03:13:33.405Z,0
2017-09-22T03:14:33.738Z,0
2017-09-22T03:15:33.438Z,0
2017-09-22T03:16:33.469Z,0
2017-09-22T03:17:33.532Z,0
2017-09-22T03:18:33.499Z,0
2017-09-22T03:19:33.514Z,0
2017-09-22T03:20:33.536Z,0
2017-09-22T03:21:33.557Z,0
2017-09-22T03:22:33.578Z,0
2017-09-22T03:23:33.591Z,0
2017-09-22T03:24:33.610Z,0
2017-09-22T03:25:33.631Z,0
2017-09-22T03:26:33.653Z,0
2017-09-22T03:27:33.688Z,0
2017-09-22T03:28:33.695Z,0
2017-09-22T03:29:33.713Z,0
2017-09-22T03:30:33.733Z,0
2017-09-22T03:31:33.749Z,0
2017-09-22T03:32:33.820Z,0
2017-09-22T03:33:34.160Z,0
2017-09-22T03:34:33.799Z,0
2017-09-22T03:35:33.825Z,0
2017-09-22T03:36:33.839Z,0
2017-09-22T03:37:33.868Z,0
2017-09-22T03:38:33.880Z,0
2017-09-22T03:39:34.327Z,0
2017-09-22T03:40:33.922Z,0
2017-09-22T03:41:34.246Z,0
2017-09-22T03:42:34.265Z,0
2017-09-22T03:43:33.969Z,0
2017-09-22T03:44:33.994Z,0
2017-09-22T03:45:34.015Z,0
2017-09-22T03:46:34.023Z,0
2017-09-22T03:47:34.053Z,0
2017-09-22T03:48:34.079Z,0
2017-09-22T03:49:34.082Z,0
2017-09-22T03:50:34.151Z,0
2017-09-22T03:51:34.432Z,0
2017-09-22T03:52:34.141Z,0
2017-09-22T03:53:34.156Z,0
2017-09-22T03:54:34.178Z,0
2017-09-22T03:55:34.198Z,0
2017-09-22T03:56:34.220Z,0
2017-09-22T03:57:34.551Z,0
2017-09-22T03:58:34.565Z,0
2017-09-22T03:59:34.276Z,0
2017-09-22T04:00:34.620Z,0
2017-09-22T04:01:34.309Z,0
2017-09-22T04:02:34.365Z,0
2017-09-22T04:03:34.351Z,0
2017-09-22T04:04:34.375Z,0
2017-09-22T04:05:34.402Z,0
2017-09-22T04:06:34.714Z,0
2017-09-22T04:07:34.429Z,0
2017-09-22T04:08:34.495Z,0
2017-09-22T04:09:34.460Z,0
2017-09-22T04:10:34.481Z,0
2017-09-22T04:11:34.499Z,0
2017-09-22T04:12:34.520Z,0
2017-09-22T04:13:34.545Z,0
2017-09-22T04:14:34.555Z,0
2017-09-22T04:15:34.574Z,0
2017-09-22T04:16:34.604Z,0
2017-09-22T04:17:34.923Z,0
2017-09-22T04:18:34.633Z,0
2017-09-22T04:19:34.656Z,0
2017-09-22T04:20:34.674Z,0
2017-09-22T04:21:35.000Z,0
2017-09-22T04:22:34.712Z,0
2017-09-22T04:23:34.730Z,0
2017-09-22T04:24:35.845Z,0
2017-09-22T04:25:34.765Z,0
2017-09-22T04:26:34.786Z,0
2017-09-22T04:27:35.123Z,0
2017-09-22T04:28:34.823Z,0
2017-09-22T04:29:34.837Z,0
2017-09-22T04:30:34.865Z,0
2017-09-22T04:31:34.880Z,0
2017-09-22T04:32:34.900Z,0
2017-09-22T04:33:34.920Z,0
2017-09-22T04:34:34.933Z,4
2017-09-22T04:35:34.959Z,4
2017-09-22T04:36:34.987Z,0
2017-09-22T04:37:34.996Z,4
2017-09-22T04:38:35.025Z,4
2017-09-22T04:39:35.075Z,4
2017-09-22T04:40:35.356Z,8
2017-09-22T04:41:35.070Z,8
2017-09-22T04:42:35.433Z,8
2017-09-22T04:43:35.222Z,12
2017-09-22T04:44:35.127Z,16
2017-09-22T04:45:35.150Z,16
2017-09-22T04:46:35.473Z,20
2017-09-22T04:47:35.184Z,24
2017-09-22T04:48:35.517Z,32
2017-09-22T04:49:35.218Z,36
2017-09-22T04:50:35.244Z,44
2017-09-22T04:51:35.248Z,52
2017-09-22T04:52:35.278Z,60
2017-09-22T04:53:35.294Z,68
2017-09-22T04:54:35.320Z,80
2017-09-22T04:55:35.334Z,88
2017-09-22T04:56:35.364Z,104
2017-09-22T04:57:35.747Z,120
2017-09-22T04:58:35.399Z,136
2017-09-22T04:59:35.417Z,152
2017-09-22T05:00:35.433Z,176
2017-09-22T05:01:35.763Z,196
2017-09-22T05:02:35.470Z,220
2017-09-22T05:03:35.490Z,244
2017-09-22T05:04:35.500Z,264
2017-09-22T05:05:35.529Z,292
2017-09-22T05:06:35.556Z,320
2017-09-22T05:07:35.563Z,344
2017-09-22T05:08:35.576Z,372
2017-09-22T05:09:35.605Z,396
2017-09-22T05:10:35.621Z,424
2017-09-22T05:11:35.639Z,456
2017-09-22T05:12:35.655Z,488
2017-09-22T05:13:35.995Z,520
2017-09-22T05:14:35.741Z,556
2017-09-22T05:15:35.716Z,588
2017-09-22T05:16:35.731Z,624
2017-09-22T05:17:36.061Z,664
2017-09-22T05:18:35.767Z,696
2017-09-22T05:19:35.792Z,728
2017-09-22T05:20:35.815Z,760
2017-09-22T05:21:35.825Z,788
2017-09-22T05:22:36.172Z,824
2017-09-22T05:23:35.864Z,852
2017-09-22T05:24:35.884Z,884
2017-09-22T05:25:36.220Z,916
2017-09-22T05:26:35.928Z,948
2017-09-22T05:27:35.936Z,976
2017-09-22T05:28:36.264Z,1008
2017-09-22T05:29:35.978Z,1040
2017-09-22T05:30:36.041Z,1068
2017-09-22T05:31:36.325Z,1096
2017-09-22T05:32:36.347Z,1124
2017-09-22T05:33:36.057Z,1156
2017-09-22T05:34:36.077Z,1192
2017-09-22T05:35:36.091Z,1224
2017-09-22T05:36:36.117Z,1260
2017-09-22T05:37:36.132Z,1296
2017-09-22T05:38:36.144Z,1336
2017-09-22T05:39:36.178Z,1372
2017-09-22T05:40:36.501Z,1408
2017-09-22T05:41:36.209Z,1448
2017-09-22T05:42:36.224Z,1484
2017-09-22T05:43:36.247Z,1524
2017-09-22T05:44:36.274Z,1560
2017-09-22T05:45:36.282Z,1600
2017-09-22T05:46:36.791Z,1636
2017-09-22T05:47:36.374Z,1676
2017-09-22T05:48:36.344Z,1720
2017-09-22T05:49:36.360Z,1756
2017-09-22T05:50:36.382Z,1796
2017-09-22T05:51:36.405Z,1836
2017-09-22T05:52:36.423Z,1872
2017-09-22T05:53:36.438Z,1908
2017-09-22T05:54:36.452Z,1944
2017-09-22T05:55:36.486Z,1980
2017-09-22T05:56:36.804Z,2024
2017-09-22T05:57:36.543Z,2060
2017-09-22T05:58:36.535Z,2096
2017-09-22T05:59:36.869Z,2132
2017-09-22T06:00:36.573Z,2144
2017-09-22T06:01:36.594Z,2104
2017-09-22T06:02:36.620Z,2224
2017-09-22T06:03:36.640Z,2260
2017-09-22T06:04:36.713Z,2192
2017-09-22T06:05:36.977Z,2212
2017-09-22T06:06:36.691Z,2276
2017-09-22T06:07:36.710Z,2292
2017-09-22T06:08:36.734Z,2028
2017-09-22T06:09:37.368Z,1840
2017-09-22T06:10:37.084Z,1872
2017-09-22T06:11:36.788Z,1888
2017-09-22T06:12:36.818Z,1876
2017-09-22T06:13:36.833Z,1928
2017-09-22T06:14:36.844Z,1888
2017-09-22T06:15:37.179Z,2248
2017-09-22T06:16:36.885Z,2524
2017-09-22T06:17:36.907Z,2608
2017-09-22T06:18:36.914Z,2752
2017-09-22T06:19:37.418Z,2772
2017-09-22T06:20:36.961Z,2824
2017-09-22T06:21:36.971Z,2872
2017-09-22T06:22:37.309Z,2940
2017-09-22T06:23:37.022Z,3008
2017-09-22T06:24:37.036Z,3084
2017-09-22T06:25:37.059Z,3132
2017-09-22T06:26:37.076Z,3160
2017-09-22T06:27:37.103Z,3008
2017-09-22T06:28:37.125Z,2896
2017-09-22T06:29:37.446Z,3000
2017-09-22T06:30:37.154Z,3436
2017-09-22T06:31:37.173Z,3448
2017-09-22T06:32:37.507Z,3384
2017-09-22T06:33:37.211Z,3276
2017-09-22T06:34:37.232Z,3320
2017-09-22T06:35:37.255Z,3260
2017-09-22T06:36:37.318Z,3548
2017-09-22T06:37:37.291Z,3692
2017-09-22T06:38:37.318Z,3704
2017-09-22T06:39:37.338Z,3628
2017-09-22T06:40:37.357Z,3648
2017-09-22T06:41:37.369Z,3652
2017-09-22T06:42:37.703Z,3708
2017-09-22T06:43:37.721Z,3812
2017-09-22T06:44:37.428Z,3872
2017-09-22T06:45:37.771Z,3920
2017-09-22T06:46:37.475Z,3976
2017-09-22T06:47:37.499Z,4036
2017-09-22T06:48:37.531Z,4096
2017-09-22T06:49:37.533Z,4156
2017-09-22T06:50:37.554Z,4212
2017-09-22T06:51:37.629Z,4260
2017-09-22T06:52:37.913Z,4296
2017-09-22T06:53:37.614Z,4336
2017-09-22T06:54:37.633Z,4380
2017-09-22T06:55:37.660Z,4436
2017-09-22T06:56:37.678Z,4488
2017-09-22T06:57:37.700Z,4520
2017-09-22T06:58:37.730Z,4576
2017-09-22T06:59:37.737Z,4620
2017-09-22T07:00:37.755Z,4668
2017-09-22T07:01:37.800Z,4704
2017-09-22T07:02:38.105Z,4740
2017-09-22T07:03:37.819Z,4788
2017-09-22T07:04:37.853Z,4828
2017-09-22T07:05:37.858Z,4864
2017-09-22T07:06:37.944Z,4904
2017-09-22T07:07:38.212Z,4940
2017-09-22T07:08:37.921Z,4964
2017-09-22T07:09:38.249Z,4988
2017-09-22T07:10:37.969Z,4996
2017-09-22T07:11:37.979Z,5016
2017-09-22T07:12:38.006Z,5040
2017-09-22T07:13:38.021Z,5072
2017-09-22T07:14:38.041Z,5112
2017-09-22T07:15:38.065Z,5140
2017-09-22T07:16:38.077Z,5164
2017-09-22T07:17:38.100Z,5188
2017-09-22T07:18:38.124Z,5232
2017-09-22T07:19:38.151Z,5280
2017-09-22T07:20:38.483Z,5312
2017-09-22T07:21:38.179Z,5340
2017-09-22T07:22:38.203Z,5384
2017-09-22T07:23:38.224Z,5408
2017-09-22T07:24:38.246Z,5436
2017-09-22T07:25:38.264Z,5472
2017-09-22T07:26:38.281Z,5496
2017-09-22T07:27:38.307Z,5532
2017-09-22T07:28:38.323Z,5544
2017-09-22T07:29:38.664Z,5560
2017-09-22T07:30:38.366Z,5604
2017-09-22T07:31:38.388Z,5648
2017-09-22T07:32:38.409Z,5728
2017-09-22T07:33:38.439Z,5804
2017-09-22T07:34:38.447Z,5896
2017-09-22T07:35:38.477Z,5988
2017-09-22T07:36:38.493Z,6100
2017-09-22T07:37:38.515Z,6200
2017-09-22T07:38:38.634Z,6296
2017-09-22T07:39:38.555Z,6408
2017-09-22T07:40:38.578Z,6524
2017-09-22T07:41:38.604Z,6656
2017-09-22T07:42:38.623Z,6800
2017-09-22T07:43:38.637Z,6964
2017-09-22T07:44:38.661Z,7168
2017-09-22T07:45:38.682Z,7408
2017-09-22T07:46:38.713Z,7708
2017-09-22T07:47:39.028Z,8076
2017-09-22T07:48:38.749Z,8460
2017-09-22T07:49:38.760Z,8884
2017-09-22T07:50:38.789Z,9312
2017-09-22T07:51:38.818Z,9760
2017-09-22T07:52:39.332Z,10236
2017-09-22T07:53:38.897Z,10684
2017-09-22T07:54:38.885Z,10536
2017-09-22T07:55:38.893Z,9608
2017-09-22T07:56:38.914Z,9744
2017-09-22T07:57:38.936Z,10076
2017-09-22T07:58:38.962Z,9716
2017-09-22T07:59:38.978Z,9268
2017-09-22T08:00:39.002Z,8776
2017-09-22T08:01:39.025Z,8704
2017-09-22T08:02:39.057Z,8952
2017-09-22T08:03:39.068Z,8768
2017-09-22T08:04:39.106Z,8680
2017-09-22T08:05:39.116Z,8748
2017-09-22T08:06:39.134Z,8836
2017-09-22T08:07:39.474Z,8916
2017-09-22T08:08:39.176Z,8928
2017-09-22T08:09:39.577Z,9040
2017-09-22T08:10:39.232Z,8908
2017-09-22T08:11:39.247Z,9096
2017-09-22T08:12:39.273Z,8836
2017-09-22T08:13:39.296Z,8824
2017-09-22T08:14:39.323Z,8844
2017-09-22T08:15:39.349Z,8864
2017-09-22T08:16:39.362Z,8836
2017-09-22T08:17:39.388Z,8800
2017-09-22T08:18:39.438Z,8752
2017-09-22T08:19:39.741Z,8704
2017-09-22T08:20:39.452Z,8680
2017-09-22T08:21:39.480Z,8700
2017-09-22T08:22:39.521Z,8792
2017-09-22T08:23:39.520Z,8820
2017-09-22T08:24:39.549Z,8820
2017-09-22T08:25:39.879Z,8928
2017-09-22T08:26:39.589Z,9088
2017-09-22T08:27:39.614Z,9220
2017-09-22T08:28:39.692Z,9420
2017-09-22T08:29:39.693Z,9660
2017-09-22T08:30:39.681Z,9796
2017-09-22T08:31:40.024Z,11328
2017-09-22T08:32:40.043Z,10032
2017-09-22T08:33:39.754Z,10216
2017-09-22T08:34:40.095Z,10240
2017-09-22T08:35:39.824Z,10400
2017-09-22T08:36:39.827Z,10632
2017-09-22T08:37:39.855Z,10764
2017-09-22T08:38:39.869Z,10900
2017-09-22T08:39:40.219Z,11020
2017-09-22T08:40:39.917Z,11176
2017-09-22T08:41:39.945Z,11380
2017-09-22T08:42:39.963Z,11572
2017-09-22T08:43:39.988Z,11660
2017-09-22T08:44:40.006Z,11936
2017-09-22T08:45:40.082Z,11996
2017-09-22T08:46:40.068Z,12284
2017-09-22T08:47:40.082Z,12248
2017-09-22T08:48:40.107Z,12412
2017-09-22T08:49:40.128Z,12532
2017-09-22T08:50:40.168Z,12768
2017-09-22T08:51:40.176Z,12700
2017-09-22T08:52:40.209Z,12768
2017-09-22T08:53:40.238Z,12796
2017-09-22T08:54:40.561Z,12864
2017-09-22T08:55:40.270Z,13064
2017-09-22T08:56:40.304Z,13028
2017-09-22T08:57:40.320Z,12800
2017-09-22T08:58:40.344Z,12656
2017-09-22T08:59:40.372Z,12596
2017-09-22T09:00:40.410Z,12540
2017-09-22T09:01:40.523Z,12376
2017-09-22T09:02:40.447Z,12384
2017-09-22T09:03:40.801Z,12372
2017-09-22T09:04:40.486Z,12376
2017-09-22T09:05:40.822Z,12476
2017-09-22T09:06:40.549Z,12668
2017-09-22T09:07:40.589Z,12668
2017-09-22T09:08:40.589Z,12464
2017-09-22T09:09:40.618Z,12648
2017-09-22T09:10:40.962Z,16384
2017-09-22T09:11:40.717Z,15296
2017-09-22T09:12:40.693Z,12028
2017-09-22T09:13:40.710Z,11892
2017-09-22T09:14:40.744Z,11868
2017-09-22T09:15:40.770Z,11964
2017-09-22T09:16:40.787Z,12144
2017-09-22T09:17:40.809Z,12372
2017-09-22T09:18:41.155Z,12628
2017-09-22T09:19:40.858Z,12944
2017-09-22T09:20:40.927Z,13268
2017-09-22T09:21:40.940Z,13616
2017-09-22T09:22:40.937Z,14012
2017-09-22T09:23:41.271Z,14332
2017-09-22T09:24:40.991Z,14600
2017-09-22T09:25:41.008Z,14788
2017-09-22T09:26:41.042Z,14900
2017-09-22T09:27:41.069Z,15080
2017-09-22T09:28:41.088Z,14740
2017-09-22T09:29:41.429Z,14504
2017-09-22T09:30:41.201Z,14436
2017-09-22T09:31:41.153Z,14488
2017-09-22T09:32:41.192Z,14656
2017-09-22T09:33:41.207Z,15412
2017-09-22T09:34:41.240Z,14164
2017-09-22T09:35:41.260Z,13812
2017-09-22T09:36:41.284Z,13692
2017-09-22T09:37:41.311Z,13572
2017-09-22T09:38:41.338Z,13512
2017-09-22T09:39:41.369Z,13528
2017-09-22T09:40:41.398Z,13656
2017-09-22T09:41:41.414Z,13876
2017-09-22T09:42:41.436Z,14028
2017-09-22T09:43:41.468Z,14084
2017-09-22T09:44:41.503Z,14076
2017-09-22T09:45:41.573Z,14100
2017-09-22T09:46:41.855Z,13600
2017-09-22T09:47:41.576Z,13428
2017-09-22T09:48:41.589Z,13264
2017-09-22T09:49:41.619Z,13080
2017-09-22T09:50:41.646Z,12924
2017-09-22T09:51:41.980Z,12516
2017-09-22T09:52:41.693Z,12224
2017-09-22T09:53:42.037Z,11960
2017-09-22T09:54:41.768Z,11604
2017-09-22T09:55:41.783Z,11252
2017-09-22T09:56:41.808Z,11064
2017-09-22T09:57:41.830Z,10916
2017-09-22T09:58:41.862Z,10780
2017-09-22T09:59:41.877Z,10632
2017-09-22T10:00:41.903Z,10520
2017-09-22T10:01:41.978Z,10404
2017-09-22T10:02:41.960Z,10264
2017-09-22T10:03:42.002Z,10120
2017-09-22T10:04:42.006Z,9976
2017-09-22T10:05:42.349Z,9928
2017-09-22T10:06:42.376Z,9848
2017-09-22T10:07:42.392Z,9908
2017-09-22T10:08:42.429Z,10056
2017-09-22T10:09:42.467Z,10272
2017-09-22T10:10:42.151Z,10532
2017-09-22T10:11:42.183Z,10820
2017-09-22T10:12:42.203Z,11116
2017-09-22T10:13:42.229Z,11392
2017-09-22T10:14:42.254Z,11668
2017-09-22T10:15:42.278Z,11936
2017-09-22T10:16:42.304Z,12136
2017-09-22T10:17:42.529Z,12328
2017-09-22T10:18:42.355Z,12532
2017-09-22T10:19:42.380Z,12740
2017-09-22T10:20:42.405Z,12972
2017-09-22T10:21:42.430Z,13176
2017-09-22T10:22:42.767Z,13616
2017-09-22T10:23:42.483Z,13876
2017-09-22T10:24:42.502Z,14092
2017-09-22T10:25:42.532Z,14400
2017-09-22T10:26:42.565Z,14992
2017-09-22T10:27:42.898Z,15968
2017-09-22T10:28:42.610Z,15528
2017-09-22T10:29:42.638Z,16800
2017-09-22T10:30:42.659Z,15120
2017-09-22T10:31:42.681Z,16768
2017-09-22T10:32:42.717Z,14500
2017-09-22T10:33:42.732Z,14248
2017-09-22T10:34:42.845Z,14408
2017-09-22T10:35:42.783Z,16064
2017-09-22T10:36:42.812Z,13496
2017-09-22T10:37:42.846Z,13168
2017-09-22T10:38:42.873Z,13140
2017-09-22T10:39:42.891Z,13156
2017-09-22T10:40:42.919Z,13220
2017-09-22T10:41:42.938Z,13380
2017-09-22T10:42:42.975Z,13836
2017-09-22T10:43:43.008Z,13604
2017-09-22T10:44:43.024Z,13020
2017-09-22T10:45:43.355Z,12772
2017-09-22T10:46:43.071Z,12820
2017-09-22T10:47:43.107Z,12740
2017-09-22T10:48:43.126Z,12852
2017-09-22T10:49:43.155Z,13004
2017-09-22T10:50:43.226Z,13264
2017-09-22T10:51:43.206Z,13556
2017-09-22T10:52:43.225Z,13852
2017-09-22T10:53:43.256Z,14100
2017-09-22T10:54:43.482Z,14556
2017-09-22T10:55:43.327Z,15648
2017-09-22T10:56:43.334Z,15160
2017-09-22T10:57:43.356Z,15512
2017-09-22T10:58:43.393Z,16352
2017-09-22T10:59:44.037Z,15592
2017-09-22T11:00:43.439Z,15704
2017-09-22T11:01:43.468Z,15816
2017-09-22T11:02:43.498Z,15668
2017-09-22T11:03:43.519Z,15488
2017-09-22T11:04:43.541Z,15180
2017-09-22T11:05:43.942Z,15064
2017-09-22T11:06:43.591Z,16064
2017-09-22T11:07:44.254Z,15508
2017-09-22T11:08:43.657Z,14588
2017-09-22T11:09:44.000Z,14392
2017-09-22T11:10:43.707Z,15068
2017-09-22T11:11:43.734Z,16480
2017-09-22T11:12:43.758Z,17920
2017-09-22T11:13:43.910Z,20512
2017-09-22T11:14:43.824Z,26496
2017-09-22T11:15:43.842Z,34240
2017-09-22T11:16:43.868Z,28160
2017-09-22T11:17:43.888Z,31232
2017-09-22T11:18:43.918Z,36288
2017-09-22T11:19:43.956Z,29088
2017-09-22T11:20:44.284Z,30240
2017-09-22T11:21:44.000Z,27552
2017-09-22T11:22:44.038Z,27040
2017-09-22T11:23:44.055Z,27040
2017-09-22T11:24:44.087Z,40384
2017-09-22T11:25:44.118Z,23552
2017-09-22T11:26:44.142Z,16028
2017-09-22T11:27:44.169Z,16040
2017-09-22T11:28:44.200Z,17856
2017-09-22T11:29:44.227Z,64896
2017-09-22T11:30:44.280Z,62272
2017-09-22T11:31:44.306Z,61376
2017-09-22T11:32:44.318Z,23648
2017-09-22T11:33:44.340Z,24896
2017-09-22T11:34:44.373Z,33184
2017-09-22T11:35:44.711Z,25216
2017-09-22T11:36:44.431Z,70560
2017-09-22T11:37:45.090Z,31840
2017-09-22T11:38:44.545Z,54528
2017-09-22T11:39:44.840Z,42496
2017-09-22T11:40:44.558Z,34816
2017-09-22T11:41:44.593Z,39168
2017-09-22T11:42:44.614Z,36640
2017-09-22T11:43:44.642Z,43776
2017-09-22T11:44:44.674Z,35200
2017-09-22T11:45:44.709Z,46944
2017-09-22T11:46:44.768Z,52992
2017-09-22T11:47:44.775Z,49376
2017-09-22T11:48:44.804Z,42016
2017-09-22T11:49:45.184Z,40320
2017-09-22T11:50:44.860Z,36512
2017-09-22T11:51:44.898Z,74432
2017-09-22T11:52:44.936Z,60544
2017-09-22T11:53:45.011Z,14396
2017-09-22T11:54:44.987Z,12472
2017-09-22T11:55:45.021Z,13196
2017-09-22T11:56:45.056Z,13056
2017-09-22T11:57:45.088Z,15744
2017-09-22T11:58:45.127Z,32256
2017-09-22T11:59:45.156Z,24608
2017-09-22T12:00:45.187Z,29856
2017-09-22T12:01:45.209Z,26528
2017-09-22T12:02:45.250Z,19488
2017-09-22T12:03:45.326Z,23456
2017-09-22T12:04:45.625Z,17760
2017-09-22T12:05:45.663Z,17408
2017-09-22T12:06:45.368Z,15172
2017-09-22T12:07:45.722Z,35072
2017-09-22T12:08:45.481Z,20000
2017-09-22T12:09:45.469Z,25504
2017-09-22T12:10:45.503Z,23552
2017-09-22T12:11:45.841Z,20384
2017-09-22T12:12:45.552Z,17664
2017-09-22T12:13:45.586Z,16896
2017-09-22T12:14:45.615Z,17120
2017-09-22T12:15:45.655Z,16736
2017-09-22T12:16:45.689Z,17216
2017-09-22T12:17:45.707Z,16288
2017-09-22T12:18:45.742Z,15556
2017-09-22T12:19:45.767Z,15112
2017-09-22T12:20:45.805Z,15300
2017-09-22T12:21:45.832Z,14900
2017-09-22T12:22:45.863Z,15028
2017-09-22T12:23:45.889Z,15224
2017-09-22T12:24:45.919Z,15164
2017-09-22T12:25:46.275Z,15196
2017-09-22T12:26:46.351Z,15252
2017-09-22T12:27:46.011Z,15356
2017-09-22T12:28:46.357Z,15280
2017-09-22T12:29:46.065Z,15408
2017-09-22T12:30:46.088Z,15580
2017-09-22T12:31:46.125Z,15648
2017-09-22T12:32:46.467Z,15368
2017-09-22T12:33:46.182Z,15332
2017-09-22T12:34:46.230Z,15092
2017-09-22T12:35:46.258Z,14748
2017-09-22T12:36:46.322Z,14272
2017-09-22T12:37:46.306Z,13788
2017-09-22T12:38:46.324Z,13648
2017-09-22T12:39:46.360Z,13692
2017-09-22T12:40:46.382Z,13728
2017-09-22T12:41:46.464Z,14024
2017-09-22T12:42:46.752Z,14448
2017-09-22T12:43:46.791Z,14836
2017-09-22T12:44:46.514Z,15364
2017-09-22T12:45:46.532Z,16320
2017-09-22T12:46:46.570Z,17088
2017-09-22T12:47:46.930Z,17792
2017-09-22T12:48:46.619Z,17312
2017-09-22T12:49:46.645Z,17568
2017-09-22T12:50:46.679Z,17568
2017-09-22T12:51:46.708Z,16992
2017-09-22T12:52:46.735Z,16928
2017-09-22T12:53:46.792Z,17376
2017-09-22T12:54:46.790Z,17248
2017-09-22T12:55:46.824Z,17024
2017-09-22T12:56:46.907Z,18784
2017-09-22T12:57:46.886Z,18880
2017-09-22T12:58:46.909Z,16864
2017-09-22T12:59:46.933Z,16576
2017-09-22T13:00:46.967Z,16672
2017-09-22T13:01:47.005Z,16960
2017-09-22T13:02:47.027Z,16800
2017-09-22T13:03:47.070Z,16140
2017-09-22T13:04:47.083Z,15856
2017-09-22T13:05:47.115Z,16156
2017-09-22T13:06:47.148Z,16480
2017-09-22T13:07:47.181Z,16672
2017-09-22T13:08:47.210Z,16120
2017-09-22T13:09:47.252Z,15984
2017-09-22T13:10:47.264Z,15548
2017-09-22T13:11:47.302Z,15352
2017-09-22T13:12:47.322Z,15320
2017-09-22T13:13:47.352Z,15560
2017-09-22T13:14:47.389Z,15964
2017-09-22T13:15:47.417Z,16544
2017-09-22T13:16:47.776Z,16800
2017-09-22T13:17:47.472Z,16960
2017-09-22T13:18:47.504Z,17280
2017-09-22T13:19:47.532Z,16640
2017-09-22T13:20:47.572Z,15864
2017-09-22T13:21:47.590Z,14944
2017-09-22T13:22:47.627Z,13928
2017-09-22T13:23:47.662Z,13004
2017-09-22T13:24:47.683Z,12852
2017-09-22T13:25:47.716Z,12780
2017-09-22T13:26:47.745Z,12852
2017-09-22T13:27:47.777Z,13364
2017-09-22T13:28:47.805Z,14688
2017-09-22T13:29:47.836Z,14696
2017-09-22T13:30:47.912Z,15680
2017-09-22T13:31:47.905Z,17024
2017-09-22T13:32:47.937Z,22336
2017-09-22T13:33:47.983Z,23552
2017-09-22T13:34:47.987Z,27712
2017-09-22T13:35:48.015Z,27104
2017-09-22T13:36:48.354Z,24352
2017-09-22T13:37:48.070Z,25408
2017-09-22T13:38:48.104Z,29248